createdAt,value
2019-01-19T00:00:18.351Z,-0.40
2019-01-19T00:02:51.059Z,-0.40
2019-01-19T00:05:23.740Z,-0.40
2019-01-19T00:08:02.394Z,-0.40
2019-01-19T00:10:38.215Z,-0.40
2019-01-19T00:13:20.190Z,-0.40
2019-01-19T00:15:52.769Z,-0.40
2019-01-19T00:18:31.964Z,-0.50
2019-01-19T00:21:18.575Z,-0.50
2019-01-19T00:26:05.583Z,-0.50
2019-01-19T00:28:35.502Z,-0.50
2019-01-19T00:31:05.442Z,-0.50
2019-01-19T00:33:44.366Z,-0.50
2019-01-19T00:36:14.299Z,-0.50
2019-01-19T00:38:44.203Z,-0.50
2019-01-19T00:41:16.871Z,-0.50
2019-01-19T00:43:44.161Z,-0.50
2019-01-19T00:46:20.246Z,-0.50
2019-01-19T00:48:53.140Z,-0.50
2019-01-19T00:51:23.063Z,-0.50
2019-01-19T00:53:55.735Z,-0.50
2019-01-19T00:56:46.671Z,-0.50
2019-01-19T00:59:16.574Z,-0.60
2019-01-19T01:01:49.301Z,-0.60
2019-01-19T01:04:37.310Z,-0.60
2019-01-19T01:07:16.094Z,-0.60
2019-01-19T01:09:51.796Z,-0.60
2019-01-19T01:12:38.373Z,-0.60
2019-01-19T01:15:32.591Z,-0.60
2019-01-19T01:18:02.603Z,-0.70
2019-01-19T01:20:35.266Z,-0.70
2019-01-19T01:23:23.496Z,-0.70
2019-01-19T01:26:14.247Z,-0.70
2019-01-19T01:28:50.308Z,-0.80
2019-01-19T01:31:26.129Z,-0.80
2019-01-19T01:34:11.504Z,-0.80
2019-01-19T01:36:44.412Z,-0.80
2019-01-19T01:39:14.332Z,-0.80
2019-01-19T01:41:47.187Z,-0.90
2019-01-19T01:44:19.881Z,-0.90
2019-01-19T01:46:58.559Z,-0.90
2019-01-19T01:49:28.483Z,-0.90
2019-01-19T01:52:04.310Z,-0.90
2019-01-19T01:54:36.780Z,-0.90
2019-01-19T01:57:06.696Z,-0.90
2019-01-19T01:59:56.502Z,-0.90
2019-01-19T02:02:41.167Z,-0.90
2019-01-19T02:05:31.840Z,-1.00
2019-01-19T02:08:16.357Z,-1.00
2019-01-19T02:11:01.420Z,-1.00
2019-01-19T02:13:43.055Z,-1.00
2019-01-19T02:16:32.840Z,-1.00
2019-01-19T02:19:29.531Z,-1.00
2019-01-19T02:22:09.472Z,-1.00
2019-01-19T02:24:55.980Z,-1.10
2019-01-19T02:27:28.874Z,-1.10
2019-01-19T02:30:01.773Z,-1.10
2019-01-19T02:32:43.635Z,-1.10
2019-01-19T02:35:19.460Z,-1.10
2019-01-19T02:37:55.189Z,-1.10
2019-01-19T02:40:34.351Z,-1.20
2019-01-19T02:43:10.391Z,-1.10
2019-01-19T02:45:55.308Z,-1.20
2019-01-19T02:48:50.943Z,-1.20
2019-01-19T02:51:35.275Z,-1.20
2019-01-19T02:54:11.351Z,-1.20
2019-01-19T02:56:41.334Z,-1.20
2019-01-19T02:59:27.986Z,-1.20
2019-01-19T03:02:00.949Z,-1.30
2019-01-19T03:04:39.772Z,-1.30
2019-01-19T03:07:18.672Z,-1.30
2019-01-19T03:09:56.887Z,-1.30
2019-01-19T03:12:52.400Z,-1.30
2019-01-19T03:15:55.850Z,-1.40
2019-01-19T03:18:37.373Z,-1.40
2019-01-19T03:21:28.334Z,-1.50
2019-01-19T03:24:00.995Z,-1.50
2019-01-19T03:26:39.958Z,-1.50
2019-01-19T03:29:24.877Z,-1.50
2019-01-19T03:32:06.874Z,-1.50
2019-01-19T03:34:53.612Z,-1.50
2019-01-19T03:37:47.444Z,-1.60
2019-01-19T03:40:25.959Z,-1.60
2019-01-19T03:43:27.170Z,-1.60
2019-01-19T03:46:21.202Z,-1.60
2019-01-19T03:48:53.724Z,-1.70
2019-01-19T03:51:26.784Z,-1.70
2019-01-19T03:53:56.866Z,-1.70
2019-01-19T03:56:38.759Z,-1.70
2019-01-19T03:59:23.212Z,-1.70
2019-01-19T04:02:05.047Z,-1.70
2019-01-19T04:04:47.247Z,-1.70
2019-01-19T04:07:20.141Z,-1.70
2019-01-19T04:09:56.243Z,-1.80
2019-01-19T04:12:34.823Z,-1.80
2019-01-19T04:15:24.869Z,-1.80
2019-01-19T04:18:09.531Z,-1.80
2019-01-19T04:20:42.181Z,-1.80
2019-01-19T04:23:08.288Z,-1.80
2019-01-19T04:25:40.120Z,-1.80
2019-01-19T04:28:06.518Z,-1.80
2019-01-19T04:30:32.631Z,-1.80
2019-01-19T04:32:58.733Z,-1.80
2019-01-19T04:35:24.862Z,-1.80
2019-01-19T04:37:50.969Z,-1.80
2019-01-19T04:40:17.066Z,-1.80
2019-01-19T04:42:44.284Z,-1.80
2019-01-19T04:45:10.374Z,-1.70
2019-01-19T04:47:36.508Z,-1.70
2019-01-19T04:50:05.194Z,-1.80
2019-01-19T04:52:31.313Z,-1.80
2019-01-19T04:54:57.411Z,-1.70
2019-01-19T04:57:23.755Z,-1.80
2019-01-19T04:59:49.852Z,-1.80
2019-01-19T05:02:15.980Z,-1.80
2019-01-19T05:04:42.067Z,-1.80
2019-01-19T05:07:08.179Z,-1.80
2019-01-19T05:09:34.263Z,-1.80
2019-01-19T05:12:00.367Z,-1.90
2019-01-19T05:14:26.549Z,-1.90
2019-01-19T05:16:52.643Z,-1.90
2019-01-19T05:19:18.768Z,-1.90
2019-01-19T05:21:44.867Z,-1.90
2019-01-19T05:24:10.978Z,-1.90
2019-01-19T05:26:37.111Z,-1.90
2019-01-19T05:29:03.219Z,-1.90
2019-01-19T05:31:29.316Z,-1.90
2019-01-19T05:33:55.568Z,-1.90
2019-01-19T05:36:21.687Z,-1.90
2019-01-19T05:38:47.802Z,-1.90
2019-01-19T05:41:13.896Z,-2.00
2019-01-19T05:43:39.999Z,-2.00
2019-01-19T05:46:06.091Z,-2.00
2019-01-19T05:48:32.203Z,-2.00
2019-01-19T05:50:58.327Z,-2.00
2019-01-19T05:53:24.419Z,-2.10
2019-01-19T05:55:50.556Z,-2.10
2019-01-19T05:58:16.635Z,-2.10
2019-01-19T06:00:42.753Z,-2.20
2019-01-19T06:03:08.835Z,-2.20
2019-01-19T06:05:36.394Z,-2.20
2019-01-19T06:08:02.484Z,-2.20
2019-01-19T06:10:28.702Z,-2.20
2019-01-19T06:12:54.804Z,-2.30
2019-01-19T06:15:20.907Z,-2.30
2019-01-19T06:17:47.003Z,-2.30
2019-01-19T06:20:15.322Z,-2.40
2019-01-19T06:22:41.419Z,-2.40
2019-01-19T06:25:10.255Z,-2.40
2019-01-19T06:27:36.371Z,-2.40
2019-01-19T06:30:05.913Z,-2.40
2019-01-19T06:32:32.011Z,-2.40
2019-01-19T06:34:58.118Z,-2.40
2019-01-19T06:37:24.327Z,-2.40
2019-01-19T06:39:50.418Z,-2.40
2019-01-19T06:42:16.547Z,-2.40
2019-01-19T06:44:42.631Z,-2.50
2019-01-19T06:47:08.820Z,-2.40
2019-01-19T06:49:35.035Z,-2.50
2019-01-19T06:55:26.270Z,-2.60
2019-01-19T06:57:52.434Z,-2.60
2019-01-19T07:00:18.641Z,-2.60
2019-01-19T07:02:44.758Z,-2.70
2019-01-19T07:05:10.995Z,-2.70
2019-01-19T07:07:37.107Z,-2.70
2019-01-19T07:10:09.315Z,-2.70
2019-01-19T07:12:35.439Z,-2.70
2019-01-19T07:15:01.553Z,-2.70
2019-01-19T07:17:27.641Z,-2.60
2019-01-19T07:19:53.755Z,-2.70
2019-01-19T07:22:19.863Z,-2.70
2019-01-19T07:24:45.994Z,-2.70
2019-01-19T07:27:12.097Z,-2.60
2019-01-19T07:29:38.330Z,-2.60
2019-01-19T07:32:04.406Z,-2.60
2019-01-19T07:34:30.527Z,-2.60
2019-01-19T07:36:56.620Z,-2.60
2019-01-19T07:39:22.772Z,-2.70
2019-01-19T07:41:48.870Z,-2.70
2019-01-19T07:44:15.023Z,-2.60
2019-01-19T07:46:41.738Z,-2.60
2019-01-19T07:49:07.861Z,-2.50
2019-01-19T07:51:33.963Z,-2.40
2019-01-19T07:54:00.163Z,-2.30
2019-01-19T07:56:26.273Z,-2.20
2019-01-19T07:58:52.429Z,-2.20
2019-01-19T08:01:18.547Z,-2.10
2019-01-19T08:03:44.687Z,-2.00
2019-01-19T08:06:10.807Z,-1.90
2019-01-19T08:08:36.902Z,-1.80
2019-01-19T08:11:03.064Z,-1.60
2019-01-19T08:13:29.146Z,-1.50
2019-01-19T08:15:55.746Z,-1.40
2019-01-19T08:18:21.846Z,-1.30
2019-01-19T08:20:47.969Z,-1.10
2019-01-19T08:23:14.070Z,-1.00
2019-01-19T08:25:40.200Z,-0.80
2019-01-19T08:28:06.294Z,-0.70
2019-01-19T08:30:32.411Z,-0.50
2019-01-19T08:32:58.503Z,-0.40
2019-01-19T08:35:24.640Z,-0.20
2019-01-19T08:37:50.767Z,-0.10
2019-01-19T08:40:23.658Z,0.10
2019-01-19T08:42:51.685Z,0.20
2019-01-19T08:45:18.572Z,0.30
2019-01-19T08:47:44.693Z,0.40
2019-01-19T08:50:10.843Z,0.40
2019-01-19T08:52:36.971Z,0.50
2019-01-19T08:55:06.396Z,0.60
2019-01-19T08:57:32.998Z,0.70
2019-01-19T08:59:59.135Z,0.80
2019-01-19T09:02:25.276Z,1.00
2019-01-19T09:04:51.392Z,1.10
2019-01-19T09:07:17.515Z,1.20
2019-01-19T09:09:43.622Z,1.40
2019-01-19T09:12:09.747Z,1.50
2019-01-19T09:14:35.865Z,1.50
2019-01-19T09:17:02.014Z,1.60
2019-01-19T09:19:28.131Z,1.70
2019-01-19T09:21:54.254Z,1.70
2019-01-19T09:24:20.944Z,1.80
2019-01-19T09:26:47.439Z,1.80
2019-01-19T09:29:13.608Z,1.90
2019-01-19T09:31:39.703Z,2.00
2019-01-19T09:34:05.811Z,2.10
2019-01-19T09:36:31.895Z,2.20
2019-01-19T09:38:58.038Z,2.30
2019-01-19T09:41:24.135Z,2.30
2019-01-19T09:43:50.268Z,2.50
2019-01-19T09:46:16.374Z,2.60
2019-01-19T09:48:42.490Z,2.70
2019-01-19T09:51:08.618Z,3.00
2019-01-19T09:53:34.767Z,3.30
2019-01-19T09:56:00.895Z,3.80
2019-01-19T09:58:27.059Z,4.30
2019-01-19T10:00:53.167Z,5.00
2019-01-19T10:03:19.327Z,5.50
2019-01-19T10:05:45.400Z,5.90
2019-01-19T10:08:11.542Z,6.50
2019-01-19T10:10:37.638Z,7.00
2019-01-19T10:13:03.745Z,7.30
2019-01-19T10:15:29.889Z,8.20
2019-01-19T10:17:56.175Z,8.90
2019-01-19T10:20:25.314Z,9.80
2019-01-19T10:22:51.406Z,11.20
2019-01-19T10:25:19.799Z,12.50
2019-01-19T10:27:45.959Z,13.50
2019-01-19T10:30:16.008Z,13.90
2019-01-19T10:32:42.112Z,14.30
2019-01-19T10:35:11.219Z,13.60
2019-01-19T10:37:37.342Z,13.80
2019-01-19T10:40:09.819Z,14.10
2019-01-19T10:42:35.945Z,14.80
2019-01-19T10:45:02.978Z,15.30
2019-01-19T10:47:29.094Z,15.80
2019-01-19T10:49:55.201Z,16.50
2019-01-19T10:52:21.359Z,16.30
2019-01-19T10:54:47.467Z,16.60
2019-01-19T10:57:13.674Z,16.90
2019-01-19T10:59:39.784Z,17.00
2019-01-19T11:02:05.899Z,17.60
2019-01-19T11:04:32.006Z,17.50
2019-01-19T11:06:58.180Z,17.70
2019-01-19T11:09:24.370Z,18.10
2019-01-19T11:11:50.559Z,18.50
2019-01-19T11:14:16.663Z,18.90
2019-01-19T11:16:42.840Z,19.30
2019-01-19T11:19:08.974Z,19.60
2019-01-19T11:21:35.127Z,19.90
2019-01-19T11:24:01.255Z,20.20
2019-01-19T11:26:27.346Z,21.00
2019-01-19T11:28:53.503Z,20.60
2019-01-19T11:31:19.776Z,20.40
2019-01-19T11:33:45.888Z,19.90
2019-01-19T11:36:11.995Z,19.90
2019-01-19T11:38:38.102Z,19.90
2019-01-19T11:41:04.546Z,20.80
2019-01-19T11:43:30.694Z,20.90
2019-01-19T11:45:56.816Z,21.80
2019-01-19T11:48:23.080Z,22.50
2019-01-19T11:50:49.165Z,23.20
2019-01-19T11:53:15.348Z,23.20
2019-01-19T11:55:41.488Z,23.40
2019-01-19T11:58:07.707Z,24.10
2019-01-19T12:00:36.308Z,24.70
2019-01-19T12:03:03.149Z,25.20
2019-01-19T12:05:29.321Z,25.20
2019-01-19T12:07:55.447Z,24.40
2019-01-19T12:10:26.479Z,23.80
2019-01-19T12:12:52.606Z,23.50
2019-01-19T12:15:18.747Z,23.50
2019-01-19T12:17:45.013Z,22.90
2019-01-19T12:20:14.574Z,21.90
2019-01-19T12:22:40.693Z,21.40
2019-01-19T12:25:10.230Z,21.80
2019-01-19T12:27:36.444Z,22.20
2019-01-19T12:30:09.308Z,23.60
2019-01-19T12:32:35.520Z,23.50
2019-01-19T12:35:01.666Z,24.10
2019-01-19T12:37:27.759Z,23.30
2019-01-19T12:39:53.923Z,22.60
2019-01-19T12:42:20.035Z,21.90
2019-01-19T12:44:46.243Z,22.90
2019-01-19T12:47:12.391Z,22.90
2019-01-19T12:49:38.531Z,23.10
2019-01-19T12:52:04.705Z,23.70
2019-01-19T12:54:31.357Z,24.30
2019-01-19T12:56:57.571Z,26.00
2019-01-19T12:59:23.719Z,26.50
2019-01-19T13:01:49.849Z,26.10
2019-01-19T13:04:15.995Z,26.60
2019-01-19T13:06:42.147Z,27.20
2019-01-19T13:09:12.650Z,27.40
2019-01-19T13:11:49.295Z,27.60
2019-01-19T13:14:15.463Z,27.20
2019-01-19T13:17:09.578Z,27.20
2019-01-19T13:19:39.600Z,27.50
2019-01-19T13:22:29.546Z,27.30
2019-01-19T13:25:11.743Z,27.60
2019-01-19T13:27:41.731Z,27.90
2019-01-19T13:30:20.758Z,27.90
2019-01-19T13:32:56.700Z,28.00
2019-01-19T13:35:26.780Z,28.10
2019-01-19T13:38:22.325Z,27.30
2019-01-19T13:41:07.279Z,26.70
2019-01-19T13:43:59.730Z,26.20
2019-01-19T13:47:03.421Z,26.40
2019-01-19T13:50:02.594Z,25.90
2019-01-19T13:52:55.695Z,27.00
2019-01-19T13:55:39.900Z,26.80
2019-01-19T13:58:12.750Z,27.50
2019-01-19T14:00:59.446Z,28.30
2019-01-19T14:03:38.592Z,28.30
2019-01-19T14:06:08.539Z,27.90
2019-01-19T14:08:49.396Z,27.30
2019-01-19T14:11:22.112Z,27.80
2019-01-19T14:14:23.425Z,27.60
2019-01-19T14:16:56.316Z,28.00
2019-01-19T14:19:26.256Z,27.30
2019-01-19T14:22:21.377Z,26.80
2019-01-19T14:25:11.139Z,26.50
2019-01-19T14:27:46.790Z,26.10
2019-01-19T14:30:28.740Z,25.70
2019-01-19T14:32:58.694Z,24.80
2019-01-19T14:35:40.629Z,25.30
2019-01-19T14:38:22.539Z,25.20
2019-01-19T14:41:09.323Z,25.50
2019-01-19T14:43:39.254Z,25.20
2019-01-19T14:46:37.607Z,25.70
2019-01-19T14:49:30.309Z,24.70
2019-01-19T14:52:00.298Z,24.20
2019-01-19T14:54:30.247Z,23.20
2019-01-19T14:57:12.454Z,22.90
2019-01-19T14:59:49.404Z,21.90
2019-01-19T15:02:39.444Z,20.50
2019-01-19T15:05:27.699Z,19.50
2019-01-19T15:08:16.056Z,18.50
2019-01-19T15:10:46.002Z,17.40
2019-01-19T15:13:21.731Z,16.10
2019-01-19T15:16:08.352Z,14.40
2019-01-19T15:18:41.563Z,12.10
2019-01-19T15:21:26.756Z,10.50
2019-01-19T15:23:59.651Z,9.60
2019-01-19T15:26:37.876Z,8.70
2019-01-19T15:29:19.276Z,8.20
2019-01-19T15:32:01.040Z,7.60
2019-01-19T15:34:50.867Z,7.20
2019-01-19T15:37:43.666Z,6.80
2019-01-19T15:40:39.411Z,6.50
2019-01-19T15:43:26.019Z,6.20
2019-01-19T15:46:11.156Z,6.00
2019-01-19T15:48:50.332Z,5.80
2019-01-19T15:51:23.286Z,5.50
2019-01-19T15:54:05.225Z,5.30
2019-01-19T15:56:58.906Z,5.10
2019-01-19T15:59:40.387Z,5.00
2019-01-19T16:02:25.487Z,4.80
2019-01-19T16:05:27.175Z,4.60
2019-01-19T16:08:24.072Z,4.40
2019-01-19T16:10:54.033Z,4.20
2019-01-19T16:13:29.728Z,3.90
2019-01-19T16:16:11.718Z,3.80
2019-01-19T16:19:15.055Z,3.60
2019-01-19T16:22:00.351Z,3.40
2019-01-19T16:24:42.141Z,3.30
2019-01-19T16:27:21.266Z,3.20
2019-01-19T16:30:22.903Z,3.00
2019-01-19T16:33:10.998Z,2.90
2019-01-19T16:35:49.863Z,2.80
2019-01-19T16:38:37.794Z,2.70
2019-01-19T16:41:31.512Z,2.50
2019-01-19T16:44:24.416Z,2.50
2019-01-19T16:47:06.294Z,2.30
2019-01-19T16:49:36.281Z,2.30
2019-01-19T16:52:30.709Z,2.20
2019-01-19T16:55:23.494Z,2.10
2019-01-19T16:57:57.271Z,2.10
2019-01-19T17:00:56.263Z,2.00
2019-01-19T17:03:41.257Z,1.90
2019-01-19T17:06:37.045Z,1.80
2019-01-19T17:09:23.816Z,1.80
2019-01-19T17:12:10.440Z,1.80
2019-01-19T17:15:09.219Z,1.70
2019-01-19T17:17:45.328Z,1.60
2019-01-19T17:20:31.899Z,1.60
2019-01-19T17:23:04.985Z,1.50
2019-01-19T17:26:00.963Z,1.50
2019-01-19T17:28:33.985Z,1.40
2019-01-19T17:31:09.950Z,1.40
2019-01-19T17:33:54.714Z,1.40
2019-01-19T17:36:36.531Z,1.30
2019-01-19T17:39:18.495Z,1.30
2019-01-19T17:42:09.752Z,1.20
2019-01-19T17:44:42.741Z,1.20
2019-01-19T17:47:21.621Z,1.20
2019-01-19T17:50:12.340Z,1.10
2019-01-19T17:52:50.735Z,1.10
2019-01-19T17:55:20.724Z,1.10
2019-01-19T17:58:18.084Z,1.10
2019-01-19T18:00:49.285Z,1.10
2019-01-19T18:03:28.275Z,1.00
2019-01-19T18:06:04.160Z,1.00
2019-01-19T18:08:55.467Z,1.00
2019-01-19T18:11:25.416Z,1.00
2019-01-19T18:14:07.493Z,0.90
2019-01-19T18:16:57.458Z,0.90
2019-01-19T18:19:27.411Z,0.90
2019-01-19T18:22:15.774Z,0.80
2019-01-19T18:24:51.181Z,0.80
2019-01-19T18:27:33.359Z,0.80
2019-01-19T18:30:25.906Z,0.70
2019-01-19T18:33:16.470Z,0.80
2019-01-19T18:36:04.790Z,0.70
2019-01-19T18:39:08.192Z,0.70
2019-01-19T18:41:47.177Z,0.60
2019-01-19T18:44:17.132Z,0.60
2019-01-19T18:47:08.380Z,0.50
2019-01-19T18:49:41.313Z,0.50
2019-01-19T18:52:17.142Z,0.50
2019-01-19T18:54:49.830Z,0.40
2019-01-19T18:57:34.837Z,0.50
2019-01-19T19:00:10.937Z,0.50
2019-01-19T19:02:53.215Z,0.40
2019-01-19T19:05:39.788Z,0.40
2019-01-19T19:08:09.844Z,0.30
2019-01-19T19:10:54.895Z,0.30
2019-01-19T19:13:36.860Z,0.30
2019-01-19T19:16:07.376Z,0.30
2019-01-19T19:18:40.165Z,0.20
2019-01-19T19:21:12.934Z,0.20
2019-01-19T19:23:59.452Z,0.30
2019-01-19T19:26:47.619Z,0.20
2019-01-19T19:29:23.466Z,0.20
2019-01-19T19:31:59.223Z,0.20
2019-01-19T19:34:48.776Z,0.00
2019-01-19T19:37:49.119Z,0.10
2019-01-19T19:40:37.307Z,0.00
2019-01-19T19:43:19.200Z,-0.10
2019-01-19T19:45:49.154Z,-0.10
2019-01-19T19:48:30.853Z,-0.20
2019-01-19T19:51:03.390Z,-0.20
2019-01-19T19:53:29.516Z,-0.20
2019-01-19T19:55:55.555Z,-0.30
2019-01-19T19:58:21.685Z,-0.30
2019-01-19T20:00:47.935Z,-0.30
2019-01-19T20:03:14.064Z,-0.30
2019-01-19T20:05:41.600Z,-0.30
2019-01-19T20:08:07.887Z,-0.30
2019-01-19T20:10:33.997Z,-0.30
2019-01-19T20:13:00.250Z,-0.30
2019-01-19T20:15:26.364Z,-0.30
2019-01-19T20:17:52.571Z,-0.30
2019-01-19T20:20:18.813Z,-0.40
2019-01-19T20:22:45.133Z,-0.30
2019-01-19T20:27:50.808Z,-0.40
2019-01-19T20:30:16.956Z,-0.50
2019-01-19T20:32:43.131Z,-0.50
2019-01-19T20:35:09.269Z,-0.40
2019-01-19T20:37:35.400Z,-0.50
2019-01-19T20:40:04.595Z,-0.40
2019-01-19T20:42:30.786Z,-0.40
2019-01-19T20:44:56.897Z,-0.30
2019-01-19T20:47:23.009Z,-0.40
2019-01-19T20:49:49.745Z,-0.40
2019-01-19T20:52:16.029Z,-0.40
2019-01-19T20:54:42.185Z,-0.30
2019-01-19T20:57:08.288Z,-0.40
2019-01-19T20:59:34.467Z,-0.30
2019-01-19T21:02:00.584Z,-0.40
2019-01-19T21:04:26.859Z,-0.40
2019-01-19T21:06:53.026Z,-0.40
2019-01-19T21:09:19.167Z,-0.40
2019-01-19T21:11:45.326Z,-0.40
2019-01-19T21:14:11.464Z,-0.40
2019-01-19T21:16:37.603Z,-0.30
2019-01-19T21:19:03.836Z,-0.40
2019-01-19T21:21:30.001Z,-0.30
2019-01-19T21:23:56.152Z,-0.30
2019-01-19T21:26:22.504Z,-0.30
2019-01-19T21:28:48.636Z,-0.30
2019-01-19T21:31:14.867Z,-0.40
2019-01-19T21:33:41.104Z,-0.40
2019-01-19T21:36:07.282Z,-0.40
2019-01-19T21:38:33.518Z,-0.50
2019-01-19T21:40:59.701Z,-0.50
2019-01-19T21:43:25.837Z,-0.40
2019-01-19T21:45:52.003Z,-0.50
2019-01-19T21:48:18.216Z,-0.50
2019-01-19T21:50:44.352Z,-0.40
2019-01-19T21:53:10.449Z,-0.40
2019-01-19T21:55:36.668Z,-0.50
2019-01-19T21:58:02.906Z,-0.50
2019-01-19T22:00:29.188Z,-0.50
2019-01-19T22:02:55.710Z,-0.60
2019-01-19T22:05:21.852Z,-0.60
2019-01-19T22:07:48.011Z,-0.60
2019-01-19T22:10:20.023Z,-0.70
2019-01-19T22:12:46.312Z,-0.70
2019-01-19T22:15:14.561Z,-0.70
2019-01-19T22:17:41.400Z,-0.80
2019-01-19T22:20:10.355Z,-0.80
2019-01-19T22:22:36.559Z,-0.80
2019-01-19T22:25:04.280Z,-0.90
2019-01-19T22:27:31.022Z,-0.80
2019-01-19T22:29:57.142Z,-0.90
2019-01-19T22:32:23.287Z,-0.90
2019-01-19T22:34:49.424Z,-0.90
2019-01-19T22:37:15.523Z,-0.90
2019-01-19T22:39:41.647Z,-1.00
2019-01-19T22:42:07.927Z,-1.00
2019-01-19T22:44:34.035Z,-1.00
2019-01-19T22:47:00.169Z,-1.00
2019-01-19T22:49:26.293Z,-1.00
2019-01-19T22:51:52.424Z,-1.00
2019-01-19T22:54:18.824Z,-1.00
2019-01-19T22:56:44.943Z,-1.10
2019-01-19T22:59:11.077Z,-1.10
2019-01-19T23:01:37.341Z,-1.10
2019-01-19T23:04:04.461Z,-1.10
2019-01-19T23:06:30.587Z,-1.10
2019-01-19T23:08:56.721Z,-1.20
2019-01-19T23:11:22.890Z,-1.20
2019-01-19T23:13:49.117Z,-1.30
2019-01-19T23:16:15.520Z,-1.30
2019-01-19T23:18:41.722Z,-1.30
2019-01-19T23:21:07.854Z,-1.30
2019-01-19T23:23:33.999Z,-1.30
2019-01-19T23:26:01.795Z,-1.40
2019-01-19T23:28:28.078Z,-1.30
2019-01-19T23:30:54.273Z,-1.30
2019-01-19T23:33:20.372Z,-1.30
2019-01-19T23:35:46.536Z,-1.40
2019-01-19T23:38:12.710Z,-1.50
2019-01-19T23:40:38.900Z,-1.50
2019-01-19T23:43:05.036Z,-1.60
2019-01-19T23:45:31.289Z,-1.60
2019-01-19T23:47:57.436Z,-1.60
2019-01-19T23:50:23.721Z,-1.60
2019-01-19T23:52:49.927Z,-1.70
2019-01-19T23:55:16.059Z,-1.70
2019-01-19T23:57:42.210Z,-1.70
